createdAt,value
2022-11-03T00:07:21.737Z,10.60
2022-11-03T00:29:35.551Z,10.20
2022-11-03T00:47:16.892Z,10.80
2022-11-03T01:12:19.607Z,10.00
2022-11-03T01:14:54.088Z,10.70
2022-11-03T01:17:26.490Z,10.10
2022-11-03T01:19:55.064Z,10.20
2022-11-03T01:22:23.998Z,10.60
2022-11-03T01:27:22.384Z,10.40
2022-11-03T01:38:05.110Z,10.40
2022-11-03T01:43:24.682Z,10.00
2022-11-03T01:46:10.880Z,10.80
2022-11-03T01:48:44.603Z,10.20
2022-11-03T01:53:45.066Z,10.20
2022-11-03T01:56:14.656Z,10.10
2022-11-03T01:58:45.616Z,10.30
2022-11-03T02:03:49.103Z,10.10
2022-11-03T02:06:50.185Z,10.30
2022-11-03T02:09:19.438Z,9.70
2022-11-03T02:14:38.727Z,9.60
2022-11-03T02:17:13.383Z,10.60
2022-11-03T02:23:11.874Z,9.70
2022-11-03T02:25:44.666Z,10.50
2022-11-03T02:28:37.382Z,9.90
2022-11-03T02:31:35.831Z,10.50
2022-11-03T02:34:23.073Z,9.90
2022-11-03T02:37:00.425Z,10.70
2022-11-03T02:40:03.118Z,9.80
2022-11-03T02:42:31.712Z,9.30
2022-11-03T02:45:04.206Z,9.80
2022-11-03T02:47:33.257Z,9.50
2022-11-03T02:50:10.305Z,9.90
2022-11-03T02:55:50.913Z,9.90
2022-11-03T03:00:55.657Z,9.70
2022-11-03T03:03:38.844Z,10.30
2022-11-03T03:06:11.425Z,10.40
2022-11-03T03:08:45.130Z,11.10
2022-11-03T03:11:14.041Z,9.50
2022-11-03T03:13:44.179Z,10.00
2022-11-03T03:16:30.865Z,9.90
2022-11-03T03:21:32.572Z,10.20
2022-11-03T03:24:19.010Z,9.90
2022-11-03T03:26:51.558Z,10.70
2022-11-03T03:29:27.324Z,10.40
2022-11-03T03:31:59.449Z,10.80
2022-11-03T03:34:34.608Z,10.40
2022-11-03T03:37:10.138Z,10.60
2022-11-03T03:39:40.350Z,10.30
2022-11-03T03:42:10.297Z,10.50
2022-11-03T03:44:39.554Z,9.60
2022-11-03T03:47:24.385Z,9.60
2022-11-03T03:52:20.753Z,9.70
2022-11-03T03:57:43.127Z,10.60
2022-11-03T04:00:15.941Z,11.20
2022-11-03T04:08:04.648Z,10.20
2022-11-03T04:18:40.622Z,10.20
2022-11-03T04:21:31.540Z,10.30
2022-11-03T04:24:02.762Z,10.30
2022-11-03T04:26:30.281Z,10.50
2022-11-03T04:36:26.074Z,10.20
2022-11-03T04:39:01.831Z,10.00
2022-11-03T04:41:33.277Z,9.80
2022-11-03T04:46:31.149Z,10.80
2022-11-03T04:49:00.958Z,9.00
2022-11-03T04:51:31.931Z,9.50
2022-11-03T04:54:09.524Z,9.80
2022-11-03T04:59:14.970Z,10.30
2022-11-03T05:01:46.643Z,10.10
2022-11-03T05:04:17.421Z,9.40
2022-11-03T05:06:52.658Z,10.10
2022-11-03T05:09:27.622Z,9.40
2022-11-03T05:14:29.872Z,9.70
2022-11-03T05:19:34.096Z,9.40
2022-11-03T05:22:03.836Z,11.00
2022-11-03T05:24:32.982Z,10.70
2022-11-03T05:29:38.271Z,10.40
2022-11-03T05:32:24.943Z,9.90
2022-11-03T05:34:55.762Z,9.70
2022-11-03T05:37:29.634Z,9.90
2022-11-03T05:40:41.641Z,10.50
2022-11-03T05:43:33.988Z,10.90
2022-11-03T05:46:02.844Z,10.70
2022-11-03T05:48:35.718Z,11.00
2022-11-03T05:51:38.451Z,9.20
2022-11-03T05:54:33.874Z,10.70
2022-11-03T05:59:30.608Z,10.30
2022-11-03T06:02:01.184Z,10.50
2022-11-03T06:04:33.273Z,10.50
2022-11-03T06:07:07.482Z,10.80
2022-11-03T06:12:15.387Z,11.20
2022-11-03T06:14:49.107Z,10.90
2022-11-03T06:17:29.197Z,10.40
2022-11-03T06:20:16.687Z,10.40
2022-11-03T06:22:50.831Z,10.40
2022-11-03T06:25:44.060Z,11.30
2022-11-03T06:28:26.982Z,10.50
2022-11-03T06:33:34.214Z,11.00
2022-11-03T06:36:16.827Z,11.80
2022-11-03T06:38:53.930Z,11.00
2022-11-03T06:41:27.867Z,10.90
2022-11-03T06:46:26.328Z,10.70
2022-11-03T06:48:58.914Z,11.30
2022-11-03T06:51:29.940Z,10.60
2022-11-03T06:54:01.544Z,10.80
2022-11-03T06:56:54.159Z,11.30
2022-11-03T06:59:31.753Z,10.80
2022-11-03T07:02:48.244Z,10.70
2022-11-03T07:05:25.542Z,11.00
2022-11-03T07:07:58.317Z,10.90
2022-11-03T07:10:36.980Z,10.80
2022-11-03T07:13:32.784Z,10.60
2022-11-03T07:16:29.957Z,10.80
2022-11-03T07:19:33.471Z,11.10
2022-11-03T07:22:22.372Z,11.30
2022-11-03T07:24:59.942Z,11.20
2022-11-03T07:27:36.292Z,10.80
2022-11-03T07:32:49.484Z,11.00
2022-11-03T07:35:24.608Z,11.10
2022-11-03T07:40:49.554Z,11.50
2022-11-03T07:43:39.122Z,11.30
2022-11-03T07:46:18.419Z,11.60
2022-11-03T07:49:01.947Z,11.50
2022-11-03T07:51:38.596Z,11.10
2022-11-03T07:54:09.095Z,12.20
2022-11-03T07:57:14.724Z,11.90
2022-11-03T07:59:47.659Z,13.10
2022-11-03T08:02:36.818Z,11.70
2022-11-03T08:05:13.885Z,11.10
2022-11-03T08:08:07.032Z,12.00
2022-11-03T08:10:34.797Z,11.60
2022-11-03T08:13:04.548Z,12.00
2022-11-03T08:15:46.474Z,12.30
2022-11-03T08:18:41.606Z,12.20
2022-11-03T08:23:46.955Z,11.00
2022-11-03T08:26:18.186Z,12.40
2022-11-03T08:31:18.950Z,11.90
2022-11-03T08:33:51.315Z,12.20
2022-11-03T08:36:19.913Z,12.60
2022-11-03T08:38:47.650Z,12.20
2022-11-03T08:41:16.207Z,11.90
2022-11-03T08:43:43.778Z,12.40
2022-11-03T08:46:17.558Z,12.10
2022-11-03T08:48:49.346Z,13.00
2022-11-03T08:51:16.919Z,12.50
2022-11-03T08:56:21.926Z,12.60
2022-11-03T08:58:50.270Z,12.80
2022-11-03T09:01:18.073Z,13.80
2022-11-03T09:03:49.893Z,14.20
2022-11-03T09:06:17.572Z,12.30
2022-11-03T09:11:41.006Z,12.70
2022-11-03T09:14:08.577Z,12.50
2022-11-03T09:21:36.399Z,12.50
2022-11-03T09:24:04.310Z,13.80
2022-11-03T09:31:29.145Z,14.10
2022-11-03T09:33:57.010Z,13.70
2022-11-03T09:36:25.582Z,13.70
2022-11-03T09:38:53.110Z,14.20
2022-11-03T09:46:48.094Z,14.00
2022-11-03T09:49:16.208Z,14.40
2022-11-03T09:51:44.426Z,12.90
2022-11-03T09:54:17.083Z,14.60
2022-11-03T09:56:47.042Z,13.00
2022-11-03T09:59:19.847Z,13.90
2022-11-03T10:01:50.703Z,14.40
2022-11-03T10:04:25.824Z,14.20
2022-11-03T10:06:56.173Z,13.20
2022-11-03T10:12:02.003Z,14.90
2022-11-03T10:17:00.395Z,14.40
2022-11-03T10:21:56.111Z,14.20
2022-11-03T10:26:57.043Z,14.30
2022-11-03T10:30:07.981Z,14.10
2022-11-03T10:35:34.008Z,15.20
2022-11-03T10:38:31.211Z,14.10
2022-11-03T10:44:12.968Z,14.70
2022-11-03T10:47:06.951Z,14.50
2022-11-03T10:49:43.321Z,14.60
2022-11-03T10:52:30.001Z,14.50
2022-11-03T10:54:59.325Z,15.80
2022-11-03T10:57:27.802Z,14.90
2022-11-03T11:00:13.763Z,15.80
2022-11-03T11:02:47.413Z,14.20
2022-11-03T11:05:21.086Z,14.60
2022-11-03T11:07:51.627Z,15.50
2022-11-03T11:10:28.450Z,14.60
2022-11-03T11:13:18.620Z,15.70
2022-11-03T11:15:58.353Z,15.30
2022-11-03T11:18:28.946Z,14.40
2022-11-03T11:21:14.992Z,14.80
2022-11-03T11:24:11.585Z,15.20
2022-11-03T11:26:54.921Z,15.00
2022-11-03T11:29:36.121Z,16.20
2022-11-03T11:32:37.630Z,15.40
2022-11-03T11:35:15.287Z,15.80
2022-11-03T11:37:55.347Z,15.20
2022-11-03T11:40:23.972Z,15.20
2022-11-03T11:43:11.201Z,15.10
2022-11-03T11:46:25.741Z,15.40
2022-11-03T11:49:06.558Z,15.00
2022-11-03T11:52:02.023Z,14.90
2022-11-03T11:54:35.849Z,14.90
2022-11-03T11:57:19.653Z,14.80
2022-11-03T11:59:53.535Z,15.30
2022-11-03T12:02:47.133Z,14.60
2022-11-03T12:05:36.401Z,15.30
2022-11-03T12:08:24.159Z,15.10
2022-11-03T12:14:04.907Z,15.30
2022-11-03T12:16:55.890Z,14.90
2022-11-03T12:19:46.879Z,14.30
2022-11-03T12:22:40.166Z,14.70
2022-11-03T12:25:36.399Z,14.40
2022-11-03T12:28:35.504Z,14.90
2022-11-03T12:36:03.202Z,15.10
2022-11-03T12:43:50.612Z,15.00
2022-11-03T12:46:20.560Z,14.20
2022-11-03T12:51:20.072Z,15.80
2022-11-03T12:53:47.851Z,15.10
2022-11-03T12:56:17.196Z,14.90
2022-11-03T12:58:45.522Z,15.80
2022-11-03T13:06:10.339Z,16.40
2022-11-03T13:11:29.453Z,17.20
2022-11-03T13:16:35.787Z,18.20
2022-11-03T13:31:27.470Z,18.60
2022-11-03T14:10:07.451Z,16.00
2022-11-03T14:15:08.983Z,16.20
2022-11-03T14:22:59.675Z,15.50
2022-11-03T14:43:09.069Z,15.90
2022-11-03T14:55:59.662Z,14.70
2022-11-03T14:58:27.223Z,15.10
2022-11-03T15:08:50.768Z,14.90
2022-11-03T15:13:52.722Z,13.40
2022-11-03T15:21:43.689Z,14.20
2022-11-03T15:27:01.314Z,13.80
2022-11-03T15:32:20.558Z,14.00
2022-11-03T15:37:16.352Z,14.40
2022-11-03T15:42:12.118Z,14.90
2022-11-03T15:44:40.245Z,13.80
2022-11-03T15:47:11.026Z,14.50
2022-11-03T15:54:42.438Z,13.40
2022-11-03T16:02:27.599Z,12.80
2022-11-03T16:04:58.376Z,13.90
2022-11-03T16:20:01.321Z,13.20
2022-11-03T16:22:28.964Z,12.70
2022-11-03T16:25:00.953Z,13.30
2022-11-03T16:27:28.675Z,13.50
2022-11-03T16:34:54.869Z,12.50
2022-11-03T16:37:28.549Z,11.80
2022-11-03T16:44:52.531Z,13.70
2022-11-03T16:50:11.802Z,13.00
2022-11-03T16:52:39.329Z,12.30
2022-11-03T16:57:41.621Z,11.70
2022-11-03T17:03:00.511Z,12.40
2022-11-03T17:05:28.489Z,13.60
2022-11-03T17:08:00.291Z,12.50
2022-11-03T17:10:31.877Z,12.80
2022-11-03T17:12:59.484Z,12.60
2022-11-03T17:18:00.974Z,12.50
2022-11-03T17:22:59.881Z,12.80
2022-11-03T17:25:29.127Z,12.10
2022-11-03T17:30:34.214Z,12.60
2022-11-03T17:33:07.901Z,12.50
2022-11-03T17:35:42.529Z,12.10
2022-11-03T17:38:18.250Z,12.50
2022-11-03T17:40:52.988Z,12.80
2022-11-03T17:43:29.964Z,12.30
2022-11-03T17:46:22.843Z,12.00
2022-11-03T17:56:30.020Z,11.80
2022-11-03T17:58:58.701Z,12.50
2022-11-03T18:04:02.759Z,12.00
2022-11-03T18:06:30.653Z,11.20
2022-11-03T18:08:59.309Z,12.60
2022-11-03T18:11:48.074Z,11.80
2022-11-03T18:14:16.071Z,12.00
2022-11-03T18:16:43.678Z,12.30
2022-11-03T18:19:16.519Z,12.60
2022-11-03T18:21:44.778Z,12.00
2022-11-03T18:24:16.126Z,11.60
2022-11-03T18:26:58.016Z,11.50
2022-11-03T18:29:25.535Z,11.60
2022-11-03T18:31:53.127Z,11.80
2022-11-03T18:34:25.543Z,11.00
2022-11-03T18:36:53.330Z,11.90
2022-11-03T18:39:46.621Z,11.90
2022-11-03T18:42:16.261Z,11.10
2022-11-03T18:47:15.243Z,11.70
2022-11-03T18:52:17.839Z,11.10
2022-11-03T18:54:59.754Z,12.00
2022-11-03T18:57:28.324Z,11.40
2022-11-03T18:59:59.225Z,10.90
2022-11-03T19:04:56.840Z,10.50
2022-11-03T19:07:39.627Z,11.60
2022-11-03T19:10:22.212Z,12.00
2022-11-03T19:15:24.904Z,11.20
2022-11-03T19:17:56.735Z,11.10
2022-11-03T19:25:47.874Z,11.10
2022-11-03T19:28:20.311Z,11.00
2022-11-03T19:33:22.855Z,11.30
2022-11-03T19:38:19.294Z,11.50
2022-11-03T19:43:43.426Z,10.50
2022-11-03T19:46:19.006Z,11.40
2022-11-03T19:53:52.134Z,10.80
2022-11-03T19:56:46.426Z,11.10
2022-11-03T19:59:16.282Z,11.60
2022-11-03T20:07:06.627Z,11.10
2022-11-03T20:12:27.541Z,11.10
2022-11-03T20:15:22.307Z,10.90
2022-11-03T20:17:54.770Z,11.00
2022-11-03T20:20:40.997Z,10.90
2022-11-03T20:23:34.960Z,11.20
2022-11-03T20:26:38.381Z,10.50
2022-11-03T20:29:15.200Z,12.10
2022-11-03T20:31:46.073Z,11.00
2022-11-03T20:34:16.795Z,11.10
2022-11-03T20:37:19.759Z,11.10
2022-11-03T20:39:48.440Z,11.20
2022-11-03T20:42:26.635Z,11.40
2022-11-03T21:02:13.858Z,10.90
2022-11-03T21:05:16.080Z,11.50
2022-11-03T21:12:53.780Z,11.10
2022-11-03T21:16:23.575Z,11.10
2022-11-03T21:19:12.686Z,10.80
2022-11-03T21:24:23.355Z,11.90
2022-11-03T21:26:56.637Z,11.00
2022-11-03T21:29:57.971Z,11.60
2022-11-03T21:32:21.756Z,12.70
2022-11-03T21:37:23.898Z,11.00
2022-11-03T21:45:06.638Z,10.90
2022-11-03T21:55:04.540Z,10.90
2022-11-03T21:57:32.112Z,11.90
2022-11-03T22:02:29.859Z,11.30
2022-11-03T22:12:22.177Z,10.90
2022-11-03T22:20:23.223Z,12.30
2022-11-03T22:39:15.307Z,11.60
2022-11-03T22:44:52.445Z,12.10
2022-11-03T23:07:06.290Z,11.60
2022-11-03T23:32:49.657Z,11.40
